Time;durP1;ratioP1;P1;durP2;ratioP2;P2;SDS_P1;SDS_P2;PMS_P1;PMS_P2;Temp;Humidity;BMP_temperature;BMP_pressure;BME280_temperature;BME280_humidity;BME280_pressure;Samples;Min_cycle;Max_cycle;Signal;HPM_P1;HPM_P2
2023/04/17 00:01:39;;;;;;;9.50;5.32;;;;;;;8.69;89.21;102782.13;4975862;28;96689;-32
2023/04/17 00:04:09;;;;;;;11.85;5.50;;;;;;;8.73;89.42;102787.47;4975766;28;96718;-32
2023/04/17 00:06:38;;;;;;;10.90;5.10;;;;;;;8.72;89.28;102783.84;4974871;28;99320;-32
2023/04/17 00:09:04;;;;;;;11.68;6.18;;;;;;;8.71;89.67;102782.09;4973757;28;103022;-32
2023/04/17 00:11:30;;;;;;;10.07;5.68;;;;;;;8.68;89.69;102782.16;4975493;28;96465;-32
2023/04/17 00:13:55;;;;;;;10.10;6.03;;;;;;;8.69;89.36;102784.81;4975622;28;96768;-32
2023/04/17 00:16:21;;;;;;;9.40;5.60;;;;;;;8.66;89.34;102784.00;4975633;28;97337;-32
2023/04/17 00:18:46;;;;;;;9.88;5.63;;;;;;;8.66;89.42;102779.50;4975056;28;97783;-32
2023/04/17 00:21:12;;;;;;;10.00;5.55;;;;;;;8.67;89.86;102775.84;4975545;28;96611;-32
2023/04/17 00:23:37;;;;;;;10.27;5.43;;;;;;;8.67;89.50;102770.44;4975938;28;96777;-32
2023/04/17 00:26:02;;;;;;;10.77;5.22;;;;;;;8.69;89.88;102773.13;4974289;28;97823;-32
2023/04/17 00:28:28;;;;;;;9.77;5.72;;;;;;;8.66;89.83;102762.41;4973636;28;97332;-32
2023/04/17 00:30:53;;;;;;;10.48;6.07;;;;;;;8.70;89.42;102775.81;4974061;28;96753;-32
2023/04/17 00:33:19;;;;;;;11.60;6.40;;;;;;;8.71;89.42;102774.00;4975346;28;97335;-32
2023/04/17 00:35:44;;;;;;;13.00;7.53;;;;;;;8.67;89.02;102777.66;4974871;28;99659;-32
2023/04/17 00:38:09;;;;;;;15.40;5.68;;;;;;;8.66;89.75;102773.22;4974712;28;99152;-32
2023/04/17 00:40:35;;;;;;;11.27;6.30;;;;;;;8.67;90.25;102775.84;4975383;28;96643;-31
2023/04/17 00:43:01;;;;;;;11.63;6.35;;;;;;;8.65;89.96;102782.22;4975260;28;96729;-32
2023/04/17 00:45:26;;;;;;;14.77;7.07;;;;;;;8.64;89.02;102784.03;4973475;28;100747;-32
2023/04/17 00:47:52;;;;;;;10.73;5.82;;;;;;;8.61;89.32;102777.81;4973493;28;97307;-32
2023/04/17 00:50:18;;;;;;;14.70;7.20;;;;;;;8.62;90.00;102777.78;4973664;28;96553;-32
2023/04/17 00:52:44;;;;;;;11.05;6.05;;;;;;;8.60;90.56;102782.31;4975311;28;96759;-32
2023/04/17 00:55:10;;;;;;;11.32;5.50;;;;;;;8.60;90.44;102776.91;4972951;28;98929;-32
2023/04/17 00:57:35;;;;;;;10.77;5.82;;;;;;;8.57;90.46;102770.72;4974636;28;97743;-32
2023/04/17 01:00:00;;;;;;;11.70;5.57;;;;;;;8.56;91.03;102775.22;4975050;28;96540;-31
2023/04/17 01:02:26;;;;;;;9.60;5.57;;;;;;;8.57;90.78;102773.41;4973552;28;96962;-32
2023/04/17 01:04:51;;;;;;;14.85;5.78;;;;;;;8.57;90.33;102762.59;4974772;28;97380;-31
2023/04/17 01:07:17;;;;;;;13.80;5.53;;;;;;;8.57;90.13;102771.59;4974641;28;97333;-32
2023/04/17 01:09:42;;;;;;;11.60;5.32;;;;;;;8.60;90.25;102776.03;4974926;28;96645;-32
2023/04/17 01:12:15;;;;;;;9.93;5.03;;;;;;;8.57;89.92;102784.22;4975318;28;96735;-31
2023/04/17 01:14:40;;;;;;;9.45;5.50;;;;;;;8.49;90.65;102781.69;4973034;28;101156;-32
2023/04/17 01:17:05;;;;;;;12.05;6.55;;;;;;;8.49;90.72;102790.66;4974450;28;97076;-32
2023/04/17 01:19:31;;;;;;;11.95;6.38;;;;;;;8.48;91.02;102783.47;4974305;28;96454;-32
2023/04/17 01:21:56;;;;;;;10.85;5.82;;;;;;;8.45;91.36;102786.25;4974927;28;96752;-31
2023/04/17 01:24:21;;;;;;;10.77;5.68;;;;;;;8.42;90.95;102778.22;4974513;28;97316;-32
2023/04/17 01:26:47;;;;;;;9.77;5.35;;;;;;;8.41;91.41;102779.13;4974516;28;97879;-32
2023/04/17 01:29:12;;;;;;;10.05;4.30;;;;;;;8.38;91.35;102784.56;4974849;28;96518;-31
2023/04/17 01:31:38;;;;;;;9.13;5.57;;;;;;;8.40;90.51;102782.75;4973719;28;96996;-32
2023/04/17 01:34:03;;;;;;;10.82;6.32;;;;;;;8.39;90.54;102778.25;4974538;28;97198;-32
2023/04/17 01:36:28;;;;;;;10.23;5.43;;;;;;;8.38;89.74;102778.28;4974642;28;97796;-31
2023/04/17 01:38:54;;;;;;;10.40;5.60;;;;;;;8.35;90.60;102773.84;4977106;28;96703;-32
2023/04/17 01:41:19;;;;;;;14.77;5.97;;;;;;;8.42;90.63;102780.91;4977992;28;96812;-32
2023/04/17 01:43:46;;;;;;;8.75;5.03;;;;;;;8.40;90.71;102782.75;4977292;28;97341;-31
2023/04/17 01:46:12;;;;;;;9.43;4.70;;;;;;;8.38;90.19;102778.28;4976787;28;97938;-32
2023/04/17 01:48:38;;;;;;;8.77;4.88;;;;;;;8.43;90.52;102781.81;4977841;28;96577;-32
2023/04/17 01:51:04;;;;;;;9.63;5.05;;;;;;;8.47;90.73;102779.00;4977664;28;96807;-32
2023/04/17 01:53:30;;;;;;;10.48;5.30;;;;;;;8.50;90.15;102781.63;4976010;28;101284;-32
2023/04/17 01:55:56;;;;;;;9.73;5.15;;;;;;;8.50;90.55;102775.34;4976005;28;103092;-32
2023/04/17 01:58:22;;;;;;;10.88;6.18;;;;;;;8.52;90.91;102775.31;4977753;28;96635;-32
2023/04/17 02:00:48;;;;;;;10.13;5.05;;;;;;;8.47;89.97;102768.22;4977707;28;97783;-32
2023/04/17 02:03:14;;;;;;;16.17;6.43;;;;;;;8.50;89.85;102778.94;4975972;28;101004;-32
2023/04/17 02:05:39;;;;;;;10.48;4.90;;;;;;;8.50;90.16;102773.53;4975896;28;101051;-31
2023/04/17 02:08:05;;;;;;;10.85;5.20;;;;;;;8.49;90.43;102779.88;4976882;28;96696;-31
2023/04/17 02:10:30;;;;;;;11.52;5.85;;;;;;;8.47;90.79;102773.59;4977319;28;96837;-32
2023/04/17 02:12:56;;;;;;;10.80;6.30;;;;;;;8.45;90.60;102764.66;4977486;28;97469;-32
2023/04/17 02:15:21;;;;;;;9.68;5.13;;;;;;;8.50;90.46;102776.22;4977129;28;97334;-32
2023/04/17 02:17:46;;;;;;;9.93;5.07;;;;;;;8.48;90.51;102777.19;4977484;28;96552;-32
2023/04/17 02:20:12;;;;;;;11.90;6.03;;;;;;;8.47;90.64;102781.72;4977551;28;96720;-32
2023/04/17 02:22:37;;;;;;;10.48;5.32;;;;;;;8.40;91.21;102777.38;4977220;28;97439;-32
2023/04/17 02:25:03;;;;;;;10.95;5.40;;;;;;;8.40;90.29;102771.97;4977763;28;97265;-32
2023/04/17 02:27:28;;;;;;;8.57;4.57;;;;;;;8.43;90.58;102777.28;4977167;28;96656;-32
2023/04/17 02:29:54;;;;;;;9.35;4.38;;;;;;;8.41;90.49;102765.63;4975270;28;96908;-31
2023/04/17 02:32:19;;;;;;;10.07;4.80;;;;;;;8.43;90.67;102771.88;4975004;28;101078;-31
2023/04/17 02:34:45;;;;;;;9.30;4.85;;;;;;;8.38;90.78;102770.19;4976914;28;97324;-32
2023/04/17 02:37:10;;;;;;;14.85;6.75;;;;;;;8.30;90.79;102768.53;4976945;28;96695;-32
2023/04/17 02:39:35;;;;;;;10.18;5.10;;;;;;;8.29;90.86;102763.16;4977073;28;96494;-32
2023/04/17 02:42:01;;;;;;;11.73;5.55;;;;;;;8.26;91.32;102769.50;4977134;28;97265;-32
2023/04/17 02:44:27;;;;;;;12.52;6.13;;;;;;;8.24;91.88;102765.94;4976362;28;97934;-32
2023/04/17 02:46:52;;;;;;;13.38;5.30;;;;;;;8.25;92.23;102765.06;4977000;28;96555;-32
2023/04/17 02:49:18;;;;;;;9.60;5.28;;;;;;;8.26;91.54;102763.22;4976002;28;96498;-32
2023/04/17 02:51:43;;;;;;;9.15;4.55;;;;;;;8.29;91.30;102769.47;4976609;28;97348;-32
2023/04/17 02:54:09;;;;;;;11.85;6.00;;;;;;;8.26;91.19;102765.94;4976826;28;97090;-32
2023/04/17 02:56:34;;;;;;;10.73;5.18;;;;;;;8.27;90.76;102775.78;4976144;28;96629;-32
2023/04/17 02:59:00;;;;;;;7.20;4.25;;;;;;;8.23;90.93;102771.41;4976588;28;96787;-32
2023/04/17 03:01:26;;;;;;;6.70;4.22;;;;;;;8.25;91.15;102777.66;4976438;28;100050;-32
2023/04/17 03:03:52;;;;;;;5.90;3.75;;;;;;;8.25;91.18;102769.56;4974858;28;101142;-31
2023/04/17 03:06:17;;;;;;;9.75;5.07;;;;;;;8.27;90.78;102768.59;4976837;28;96631;-32
2023/04/17 03:08:42;;;;;;;10.98;4.85;;;;;;;8.25;91.58;102774.97;4976357;28;96818;-32
2023/04/17 03:11:08;;;;;;;11.50;5.03;;;;;;;8.21;90.93;102767.84;4976074;28;99322;-32
2023/04/17 03:13:35;;;;;;;8.32;4.43;;;;;;;8.20;91.45;102775.06;4976311;28;97354;-32
2023/04/17 03:16:00;;;;;;;8.13;4.60;;;;;;;8.25;91.53;102773.16;4976399;28;96533;-32
2023/04/17 03:18:26;;;;;;;10.77;5.32;;;;;;;8.22;91.68;102777.69;4976192;28;96808;-32
2023/04/17 03:20:51;;;;;;;8.90;4.35;;;;;;;8.19;91.69;102777.78;4975777;28;98094;-32
2023/04/17 03:23:17;;;;;;;11.07;5.05;;;;;;;8.20;91.51;102779.53;4976115;28;96804;-32
2023/04/17 03:25:42;;;;;;;7.47;4.60;;;;;;;8.14;91.82;102769.78;4976515;28;96450;-31
2023/04/17 03:28:08;;;;;;;6.65;3.97;;;;;;;8.15;91.03;102782.38;4974662;28;96693;-32
2023/04/17 03:30:33;;;;;;;8.95;4.35;;;;;;;8.18;91.00;102770.63;4975323;28;97869;-32
2023/04/17 03:32:58;;;;;;;6.07;3.65;;;;;;;8.20;91.69;102779.53;4976015;28;97592;-32
2023/04/17 03:35:24;;;;;;;6.93;3.67;;;;;;;8.21;91.58;102770.53;4976189;28;96557;-32
2023/04/17 03:37:49;;;;;;;9.70;4.25;;;;;;;8.20;91.23;102764.25;4976384;28;96811;-32
2023/04/17 03:40:15;;;;;;;8.88;4.93;;;;;;;8.20;90.59;102780.47;4975950;28;98027;-32
2023/04/17 03:42:40;;;;;;;10.05;4.20;;;;;;;8.16;90.35;102780.56;4975519;28;99276;-32
2023/04/17 03:45:06;;;;;;;6.20;3.53;;;;;;;8.07;90.75;102777.09;4975519;28;96462;-32
2023/04/17 03:47:32;;;;;;;9.45;4.82;;;;;;;8.07;90.82;102769.00;4974143;28;96840;-32
2023/04/17 03:49:57;;;;;;;8.70;4.00;;;;;;;8.05;92.00;102773.53;4975876;28;97459;-32
2023/04/17 03:52:22;;;;;;;8.77;4.22;;;;;;;8.06;91.90;102771.75;4975567;28;97340;-31
2023/04/17 03:54:48;;;;;;;7.18;4.40;;;;;;;8.07;92.22;102778.91;4975912;28;96502;-31
2023/04/17 03:57:14;;;;;;;7.68;3.95;;;;;;;8.06;91.41;102772.63;4975959;28;96797;-32
2023/04/17 03:59:39;;;;;;;6.15;3.55;;;;;;;8.10;92.29;102776.16;4974108;28;100771;-32
2023/04/17 04:02:04;;;;;;;8.68;4.00;;;;;;;8.13;92.29;102777.88;4975783;28;97358;-32
2023/04/17 04:04:30;;;;;;;7.13;3.58;;;;;;;8.14;91.90;102771.59;4975840;28;96551;-32
2023/04/17 04:06:56;;;;;;;10.20;3.67;;;;;;;8.16;91.68;102780.56;4975548;28;96905;-31
2023/04/17 04:09:23;;;;;;;9.85;3.70;;;;;;;8.18;91.90;102776.00;4974685;28;98956;-31
2023/04/17 04:11:48;;;;;;;6.70;4.20;;;;;;;8.16;91.70;102778.72;4973935;28;100997;-32
2023/04/17 04:14:13;;;;;;;7.88;4.57;;;;;;;8.23;91.51;102784.91;4975434;28;96617;-32
2023/04/17 04:16:39;;;;;;;6.32;3.53;;;;;;;8.20;91.61;102785.84;4975696;28;96728;-32
2023/04/17 04:19:04;;;;;;;7.53;4.18;;;;;;;8.21;91.53;102771.44;4975256;28;97886;-32
2023/04/17 04:21:29;;;;;;;6.57;3.92;;;;;;;8.21;92.39;102786.75;4975325;28;97904;-32
2023/04/17 04:23:55;;;;;;;7.40;4.07;;;;;;;8.16;92.04;102780.56;4975628;28;96444;-32
2023/04/17 04:26:20;;;;;;;7.90;4.15;;;;;;;8.14;91.51;102777.00;4975802;28;96748;-32
2023/04/17 04:28:46;;;;;;;9.10;4.32;;;;;;;8.16;91.51;102776.03;4974862;28;97881;-32
2023/04/17 04:31:13;;;;;;;9.77;4.78;;;;;;;8.19;92.27;102784.06;4974134;28;99400;-32
2023/04/17 04:33:39;;;;;;;7.13;3.67;;;;;;;8.22;92.24;102783.09;4973470;28;96605;-32
2023/04/17 04:36:04;;;;;;;6.55;3.60;;;;;;;8.20;91.63;102780.47;4975304;28;96737;-32
2023/04/17 04:38:31;;;;;;;6.32;3.72;;;;;;;8.21;91.91;102784.03;4974964;28;98043;-32
2023/04/17 04:41:08;;;;;;;5.78;3.15;;;;;;;8.21;91.89;102787.63;4974825;28;97814;-32
2023/04/17 04:43:34;;;;;;;5.30;3.60;;;;;;;8.22;92.00;102783.09;4973897;28;96598;-32
2023/04/17 04:46:00;;;;;;;7.30;4.28;;;;;;;8.25;91.80;102793.88;4975001;28;96783;-32
2023/04/17 04:48:25;;;;;;;6.75;3.40;;;;;;;8.23;91.98;102791.19;4974804;28;97931;-32
2023/04/17 04:50:51;;;;;;;6.60;3.78;;;;;;;8.23;92.06;102796.59;4975247;28;98009;-32
2023/04/17 04:53:17;;;;;;;8.85;4.25;;;;;;;8.26;91.96;102807.31;4974849;28;97805;-32
2023/04/17 04:55:42;;;;;;;7.25;4.15;;;;;;;8.26;91.76;102804.59;4974728;28;96980;-32
2023/04/17 04:58:08;;;;;;;6.53;4.30;;;;;;;8.27;91.53;102802.78;4974458;28;97850;-32
2023/04/17 05:00:33;;;;;;;11.32;4.97;;;;;;;8.26;91.24;102801.91;4974756;28;97921;-32
2023/04/17 05:02:58;;;;;;;10.20;3.78;;;;;;;8.22;92.16;102811.00;4974958;28;96678;-31
2023/04/17 05:05:24;;;;;;;10.13;4.57;;;;;;;8.21;92.05;102806.53;4974995;28;96756;-32
2023/04/17 05:07:52;;;;;;;12.63;4.82;;;;;;;8.20;91.82;102806.53;4974790;28;98021;-32
2023/04/17 05:10:17;;;;;;;7.90;4.35;;;;;;;8.16;91.35;102807.53;4973031;28;101111;-32
2023/04/17 05:12:43;;;;;;;7.93;4.25;;;;;;;8.14;91.16;102798.59;4975741;28;96570;-32
2023/04/17 05:15:09;;;;;;;9.65;3.90;;;;;;;8.17;91.71;102815.59;4978634;28;96787;-32
2023/04/17 05:17:35;;;;;;;7.30;4.00;;;;;;;8.18;91.68;102814.69;4976595;28;101188;-31
2023/04/17 05:20:00;;;;;;;6.95;3.75;;;;;;;8.20;91.55;102822.72;4976586;28;99496;-31
2023/04/17 05:22:26;;;;;;;8.55;5.10;;;;;;;8.15;91.26;102819.25;4977855;28;97714;-32
2023/04/17 05:24:51;;;;;;;7.57;4.22;;;;;;;8.18;91.57;102830.88;4978024;28;96789;-32
2023/04/17 05:27:17;;;;;;;9.60;4.88;;;;;;;8.22;91.47;102831.69;4977683;28;97993;-32
2023/04/17 05:29:42;;;;;;;6.47;4.18;;;;;;;8.25;91.17;102829.84;4977649;28;96746;-32
2023/04/17 05:32:07;;;;;;;7.85;3.78;;;;;;;8.19;91.42;102819.16;4977739;28;98079;-32
2023/04/17 05:34:33;;;;;;;7.45;3.38;;;;;;;8.24;91.31;102832.56;4978193;28;96731;-31
2023/04/17 05:36:58;;;;;;;8.02;4.43;;;;;;;8.21;91.59;102828.13;4977936;28;97426;-31
2023/04/17 05:39:23;;;;;;;7.97;4.68;;;;;;;8.23;90.83;102830.78;4976721;28;97765;-31
2023/04/17 05:41:49;;;;;;;11.65;4.65;;;;;;;8.24;91.22;102824.47;4977912;28;96572;-32
2023/04/17 05:44:14;;;;;;;8.52;4.72;;;;;;;8.24;90.53;102828.03;4977768;28;96816;-32
2023/04/17 05:46:39;;;;;;;6.10;3.92;;;;;;;8.24;90.81;102833.44;4975979;28;101719;-34
2023/04/17 05:49:05;;;;;;;10.45;4.15;;;;;;;8.26;90.77;102839.72;4995042;28;100664;-31
2023/04/17 05:51:30;;;;;;;9.18;4.30;;;;;;;8.24;91.08;102828.03;4997206;28;96540;-32
2023/04/17 05:53:55;;;;;;;9.60;4.28;;;;;;;8.31;90.64;102834.22;4997305;28;96750;-32
2023/04/17 05:56:24;;;;;;;9.35;4.35;;;;;;;8.32;90.54;102832.41;4997615;28;97364;-31
2023/04/17 05:58:49;;;;;;;7.03;4.28;;;;;;;8.35;90.62;102833.25;4997224;28;97867;-32
2023/04/17 06:01:16;;;;;;;6.75;4.00;;;;;;;8.39;90.51;102831.34;4997721;28;96474;-34
2023/04/17 06:03:42;;;;;;;10.13;4.63;;;;;;;8.43;90.53;102828.59;4995551;28;97044;-33
2023/04/17 06:06:07;;;;;;;8.18;4.15;;;;;;;8.44;90.25;102830.41;4994939;28;98364;-32
2023/04/17 06:08:32;;;;;;;8.88;3.42;;;;;;;8.49;90.13;102841.09;4994503;28;97752;-33
2023/04/17 06:10:58;;;;;;;7.05;3.45;;;;;;;8.49;90.46;102836.59;4993068;28;96941;-34
2023/04/17 06:13:23;;;;;;;13.85;5.53;;;;;;;8.50;89.99;102837.47;4993527;28;97223;-33
2023/04/17 06:15:49;;;;;;;8.38;4.93;;;;;;;8.54;90.07;102833.78;4993087;28;97860;-33
2023/04/17 06:18:16;;;;;;;8.05;4.13;;;;;;;8.55;89.81;102842.78;4992520;28;101358;-32
2023/04/17 06:20:42;;;;;;;8.85;4.55;;;;;;;8.55;90.22;102845.47;4994821;28;97083;-32
2023/04/17 06:23:07;;;;;;;8.68;4.53;;;;;;;8.54;90.05;102844.59;4994878;28;97255;-32
2023/04/17 06:25:33;;;;;;;8.63;4.22;;;;;;;8.58;89.64;102845.41;4994683;28;99005;-32
2023/04/17 06:27:58;;;;;;;9.05;4.57;;;;;;;8.58;89.80;102831.91;4997130;28;97907;-31
2023/04/17 06:30:23;;;;;;;6.40;3.72;;;;;;;8.61;90.05;102839.97;4995227;28;99489;-32
2023/04/17 06:32:49;;;;;;;9.45;4.78;;;;;;;8.59;89.87;102837.28;4997527;28;96681;-31
2023/04/17 06:35:14;;;;;;;8.98;4.22;;;;;;;8.59;89.40;102842.69;4995980;28;99298;-31
2023/04/17 06:37:40;;;;;;;8.30;4.28;;;;;;;8.61;89.43;102848.94;4996331;28;99704;-32
2023/04/17 06:40:06;;;;;;;8.38;4.57;;;;;;;8.63;89.66;102851.63;4997099;28;96442;-32
2023/04/17 06:42:34;;;;;;;8.80;5.50;;;;;;;8.63;89.62;102849.81;4997113;28;96797;-32
2023/04/17 06:44:59;;;;;;;10.27;4.68;;;;;;;8.68;89.56;102841.59;4996416;28;99380;-32
2023/04/17 06:47:24;;;;;;;8.35;4.35;;;;;;;8.67;89.81;102840.69;4996307;28;97720;-31
2023/04/17 06:49:50;;;;;;;8.70;4.78;;;;;;;8.71;89.65;102847.81;4996981;28;96647;-32
2023/04/17 06:52:18;;;;;;;9.05;4.38;;;;;;;8.72;89.52;102854.09;4997224;28;96802;-32
2023/04/17 06:54:44;;;;;;;8.48;4.72;;;;;;;8.75;89.30;102862.16;4995288;28;100814;-32
2023/04/17 06:57:10;;;;;;;6.22;3.70;;;;;;;8.78;89.58;102864.78;4996258;28;99256;-31
2023/04/17 06:59:37;;;;;;;10.88;5.22;;;;;;;8.71;89.71;102869.44;4994686;28;96588;-32
2023/04/17 07:02:02;;;;;;;8.70;4.93;;;;;;;8.67;89.82;102864.13;4996439;28;96786;-32
2023/04/17 07:04:29;;;;;;;12.38;4.68;;;;;;;8.68;89.23;102874.03;4996135;28;99343;-31
2023/04/17 07:06:54;;;;;;;8.52;4.35;;;;;;;8.72;89.89;102870.31;4994641;28;101338;-32
2023/04/17 07:09:20;;;;;;;7.63;4.53;;;;;;;8.76;89.61;102871.16;4996831;28;97273;-32
2023/04/17 07:11:45;;;;;;;7.25;4.43;;;;;;;8.77;89.48;102879.25;4996393;28;96777;-32
2023/04/17 07:14:10;;;;;;;8.45;4.50;;;;;;;8.80;89.56;102884.56;4995991;28;99319;-32
2023/04/17 07:16:36;;;;;;;5.88;3.72;;;;;;;8.85;89.48;102892.59;4996289;28;99327;-32
2023/04/17 07:19:01;;;;;;;10.00;5.10;;;;;;;8.84;89.38;102894.41;4996140;28;96619;-32
2023/04/17 07:21:27;;;;;;;6.47;3.78;;;;;;;8.86;89.86;102892.53;4996175;28;96904;-32
2023/04/17 07:23:52;;;;;;;7.07;3.80;;;;;;;8.86;89.44;102888.94;4995607;28;98401;-31
2023/04/17 07:26:17;;;;;;;10.65;4.55;;;;;;;8.93;89.01;102896.00;4996116;28;97877;-32
2023/04/17 07:28:43;;;;;;;9.15;4.78;;;;;;;8.90;89.17;102890.66;4996192;28;96516;-32
2023/04/17 07:31:08;;;;;;;8.65;4.75;;;;;;;8.90;89.53;102904.19;4995741;28;96781;-32
2023/04/17 07:33:37;;;;;;;12.65;5.25;;;;;;;8.88;89.11;102896.09;4995913;28;97974;-31
2023/04/17 07:36:03;;;;;;;7.60;3.85;;;;;;;8.93;89.18;102890.59;4995120;28;97814;-32
2023/04/17 07:38:32;;;;;;;7.90;4.50;;;;;;;8.96;89.49;102887.81;4994579;28;96534;-32
2023/04/17 07:40:58;;;;;;;7.63;4.45;;;;;;;8.96;89.69;102887.81;4995038;28;96884;-32
2023/04/17 07:43:24;;;;;;;6.88;4.30;;;;;;;9.02;89.47;102892.22;4995488;28;99765;-32
2023/04/17 07:45:49;;;;;;;6.75;4.47;;;;;;;9.00;89.24;102886.81;4994160;28;100429;-32
2023/04/17 07:48:21;;;;;;;6.90;4.28;;;;;;;9.06;89.22;102885.81;4995207;28;97121;-32
2023/04/17 07:50:47;;;;;;;7.68;4.45;;;;;;;9.06;89.32;102870.47;4995711;28;96838;-31
2023/04/17 07:53:12;;;;;;;12.07;5.78;;;;;;;9.06;89.00;102880.41;4995525;28;98026;-32
2023/04/17 07:55:37;;;;;;;9.50;4.47;;;;;;;9.09;89.14;102886.63;4995678;28;97275;-32
2023/04/17 07:58:03;;;;;;;11.95;5.13;;;;;;;9.14;88.97;102895.50;4995637;28;96602;-32
2023/04/17 08:00:32;;;;;;;7.57;4.53;;;;;;;9.12;89.70;102891.94;4995942;28;96751;-31
2023/04/17 08:02:58;;;;;;;8.90;4.78;;;;;;;9.13;89.04;102890.16;4995298;28;99231;-32
2023/04/17 08:05:24;;;;;;;7.15;4.75;;;;;;;9.16;89.20;102891.91;4995291;28;99206;-32
2023/04/17 08:07:49;;;;;;;13.85;5.32;;;;;;;9.17;89.10;102894.56;4994201;28;96551;-32
2023/04/17 08:10:15;;;;;;;9.07;5.38;;;;;;;9.14;89.15;102886.53;4995786;28;96761;-32
2023/04/17 08:12:40;;;;;;;8.45;4.95;;;;;;;9.12;89.34;102885.66;4994749;28;99671;-32
2023/04/17 08:15:06;;;;;;;10.65;4.65;;;;;;;9.16;89.59;102895.50;4995162;28;97442;-32
2023/04/17 08:17:32;;;;;;;13.07;5.28;;;;;;;9.22;89.61;102891.75;4994119;28;96680;-31
2023/04/17 08:19:58;;;;;;;10.85;5.70;;;;;;;9.23;89.34;102894.44;4995434;28;96790;-32
2023/04/17 08:22:27;;;;;;;11.50;5.80;;;;;;;9.22;89.57;102897.16;4994891;28;99252;-32
2023/04/17 08:24:56;;;;;;;9.70;5.70;;;;;;;9.25;89.17;102906.09;4993587;28;100924;-32
2023/04/17 08:27:24;;;;;;;10.77;5.55;;;;;;;9.26;89.31;102909.69;4993980;28;96554;-32
2023/04/17 08:29:52;;;;;;;10.18;5.47;;;;;;;9.24;89.15;102917.81;4993992;28;96860;-32
2023/04/17 08:32:18;;;;;;;9.43;5.45;;;;;;;9.24;89.35;102907.00;4994432;28;97882;-32
2023/04/17 08:34:44;;;;;;;13.77;5.40;;;;;;;9.27;89.34;102906.97;4993582;28;100710;-32
2023/04/17 08:37:09;;;;;;;11.48;5.90;;;;;;;9.26;89.12;102910.56;4993316;28;96469;-31
2023/04/17 08:39:34;;;;;;;12.15;6.15;;;;;;;9.28;89.28;102910.56;4994884;28;96621;-32
2023/04/17 08:42:05;;;;;;;9.02;5.00;;;;;;;9.33;89.22;102909.50;4994895;28;97855;-31
2023/04/17 08:44:30;;;;;;;11.02;5.43;;;;;;;9.39;88.83;102904.88;4993389;28;101180;-31
2023/04/17 08:46:57;;;;;;;8.80;4.93;;;;;;;9.42;88.58;102899.41;4994395;28;96671;-32
2023/04/17 08:49:26;;;;;;;12.07;5.90;;;;;;;9.48;88.68;102894.72;4993340;28;96789;-32
2023/04/17 08:51:52;;;;;;;10.73;5.38;;;;;;;9.52;88.58;102893.72;4994503;28;97985;-32
2023/04/17 08:54:20;;;;;;;10.27;5.82;;;;;;;9.55;88.34;102896.34;4995173;28;97231;-31
2023/04/17 08:56:46;;;;;;;9.77;5.35;;;;;;;9.59;88.18;102905.31;4993435;28;96682;-32
2023/04/17 08:59:12;;;;;;;11.90;5.40;;;;;;;9.65;87.77;102897.00;4995006;28;96711;-32
2023/04/17 09:01:37;;;;;;;14.00;6.50;;;;;;;9.68;88.16;102905.09;4993609;28;99394;-32
2023/04/17 09:04:02;;;;;;;13.40;5.97;;;;;;;9.70;88.67;102910.44;4994875;28;97204;-31
2023/04/17 09:06:47;;;;;;;12.05;6.15;;;;;;;9.68;88.23;102913.19;4995152;28;96680;-32
2023/04/17 09:09:12;;;;;;;11.38;6.18;;;;;;;9.77;87.61;102912.06;4994560;28;96616;-31
2023/04/17 09:11:38;;;;;;;10.02;5.70;;;;;;;9.75;87.82;102909.41;4994474;28;101180;-32
2023/04/17 09:14:03;;;;;;;17.30;6.35;;;;;;;9.81;87.45;102919.19;4994236;28;97409;-31
2023/04/17 09:16:28;;;;;;;8.98;5.50;;;;;;;9.77;87.50;102917.47;4994948;28;96694;-32
2023/04/17 09:19:04;;;;;;;8.18;5.13;;;;;;;9.74;87.45;102922.97;4994977;28;96805;-32
2023/04/17 09:21:30;;;;;;;10.23;5.15;;;;;;;9.73;87.75;102918.50;4993089;28;100813;-32
2023/04/17 09:23:58;;;;;;;10.82;6.18;;;;;;;9.74;87.80;102922.97;4994414;28;97796;-31
2023/04/17 09:26:25;;;;;;;9.93;5.30;;;;;;;9.75;87.50;102922.94;4992480;28;96577;-32
2023/04/17 09:29:06;;;;;;;8.73;5.85;;;;;;;9.83;86.99;102919.16;4993199;28;96851;-32
2023/04/17 09:31:36;;;;;;;10.73;6.15;;;;;;;9.84;86.59;102935.34;4991976;28;100753;-32
2023/04/17 09:34:10;;;;;;;13.82;6.15;;;;;;;9.89;86.52;102930.72;4992848;28;100802;-32
2023/04/17 09:36:37;;;;;;;8.70;4.93;;;;;;;9.91;86.40;102922.53;4994615;28;96599;-31
2023/04/17 09:39:23;;;;;;;11.35;5.75;;;;;;;9.97;86.59;102930.53;4992816;28;96857;-32
2023/04/17 09:41:49;;;;;;;7.88;5.10;;;;;;;9.98;86.75;102922.34;4992443;28;98573;-32
2023/04/17 09:44:28;;;;;;;11.57;6.38;;;;;;;9.94;86.84;102930.63;4993100;28;100776;-32
2023/04/17 09:46:54;;;;;;;11.23;6.63;;;;;;;9.96;86.59;102928.72;4992778;28;96603;-32
2023/04/17 09:49:35;;;;;;;9.20;5.05;;;;;;;9.99;86.49;102924.13;4992818;28;96862;-32
2023/04/17 09:52:01;;;;;;;10.02;4.88;;;;;;;10.07;86.42;102932.06;4993323;28;99373;-32
2023/04/17 09:54:30;;;;;;;9.98;5.13;;;;;;;10.14;86.08;102928.25;4992470;28;100549;-32
2023/04/17 09:56:56;;;;;;;8.63;5.07;;;;;;;10.25;85.62;102929.78;4992955;28;96743;-32
2023/04/17 09:59:23;;;;;;;10.25;5.07;;;;;;;10.34;85.78;102924.16;4994356;28;96866;-31
2023/04/17 10:01:49;;;;;;;11.02;5.72;;;;;;;10.44;85.48;102933.84;4996923;28;99154;-32
2023/04/17 10:04:15;;;;;;;8.95;4.80;;;;;;;10.51;84.96;102931.81;4995667;28;100900;-32
2023/04/17 10:06:40;;;;;;;14.18;5.88;;;;;;;10.56;84.10;102924.47;4997864;28;96589;-32
2023/04/17 10:09:06;;;;;;;10.02;5.25;;;;;;;10.74;83.41;102932.06;4997740;28;96877;-32
2023/04/17 10:11:38;;;;;;;9.65;5.43;;;;;;;10.89;83.09;102928.00;4995790;28;101021;-31
2023/04/17 10:14:07;;;;;;;10.55;6.00;;;;;;;11.08;83.28;102927.47;4995762;28;100750;-32
2023/04/17 10:16:42;;;;;;;12.43;5.55;;;;;;;11.12;82.84;102921.91;4996795;28;96814;-32
2023/04/17 10:19:37;;;;;;;11.70;5.93;;;;;;;11.29;82.32;102929.53;4997144;28;96666;-32
2023/04/17 10:22:16;;;;;;;11.43;5.50;;;;;;;11.39;81.98;102931.03;4995574;28;99352;-32
2023/04/17 10:24:42;;;;;;;10.90;6.53;;;;;;;11.46;81.63;102932.63;4996846;28;97913;-32
2023/04/17 10:27:23;;;;;;;11.02;5.60;;;;;;;11.86;80.98;102935.84;4995576;28;96641;-32
2023/04/17 10:29:53;;;;;;;9.55;5.60;;;;;;;12.20;79.68;102937.44;4996688;28;96664;-32
2023/04/17 10:32:19;;;;;;;14.02;6.28;;;;;;;12.39;78.97;102929.53;4995345;28;101376;-32
2023/04/17 10:34:45;;;;;;;10.20;5.55;;;;;;;12.68;77.63;102914.88;4997223;28;97731;-32
2023/04/17 10:37:21;;;;;;;9.63;5.60;;;;;;;12.93;76.99;102923.00;4995605;28;96501;-33
2023/04/17 10:39:55;;;;;;;9.60;5.32;;;;;;;13.01;75.57;102920.84;4995692;28;96777;-32
2023/04/17 10:42:22;;;;;;;12.73;5.80;;;;;;;13.13;75.95;102914.06;4995031;28;99738;-32
2023/04/17 10:44:48;;;;;;;8.68;4.95;;;;;;;13.34;74.14;102920.53;4995172;28;101103;-31
2023/04/17 10:47:14;;;;;;;11.02;5.07;;;;;;;13.86;73.81;102921.13;4995507;28;96723;-31
2023/04/17 10:50:09;;;;;;;8.00;4.50;;;;;;;14.32;70.86;102913.66;4996877;28;96762;-32
2023/04/17 10:52:41;;;;;;;8.68;5.32;;;;;;;14.53;71.46;102916.41;4995608;28;97368;-32
2023/04/17 10:55:20;;;;;;;7.60;4.93;;;;;;;14.55;70.95;102917.25;4994617;28;101017;-33
2023/04/17 10:57:55;;;;;;;10.88;5.40;;;;;;;14.39;71.08;102914.28;4994050;28;96768;-32
2023/04/17 11:00:29;;;;;;;10.13;5.53;;;;;;;14.65;71.08;102910.41;4993989;28;97063;-32
2023/04/17 11:02:55;;;;;;;12.85;5.35;;;;;;;14.96;70.11;102904.41;4996474;28;97926;-32
2023/04/17 11:05:22;;;;;;;10.05;4.82;;;;;;;15.22;69.43;102911.38;4996007;28;99100;-32
2023/04/17 11:07:49;;;;;;;9.38;4.93;;;;;;;15.29;68.38;102912.84;4995733;28;96609;-32
2023/04/17 11:10:18;;;;;;;10.40;4.55;;;;;;;15.43;67.28;102914.03;4994081;28;97012;-32
2023/04/17 11:12:47;;;;;;;9.00;5.43;;;;;;;15.50;68.50;102902.72;4994582;28;100844;-32
2023/04/17 11:15:13;;;;;;;8.77;4.80;;;;;;;15.63;64.91;102896.63;4994729;28;100937;-32
2023/04/17 11:17:45;;;;;;;9.45;4.93;;;;;;;15.75;64.83;102897.91;4996200;28;96550;-32
2023/04/17 11:20:11;;;;;;;9.15;4.55;;;;;;;15.77;64.06;102898.72;4994944;28;96985;-32
2023/04/17 11:22:37;;;;;;;9.90;4.82;;;;;;;16.01;63.55;102891.09;4994477;28;101368;-32
2023/04/17 11:25:03;;;;;;;7.25;4.40;;;;;;;15.78;64.45;102890.44;4996333;28;97333;-31